Time;durP1;ratioP1;P1;durP2;ratioP2;P2;SDS_P1;SDS_P2;PMS_P1;PMS_P2;Temp;Humidity;BMP_temperature;BMP_pressure;BME280_temperature;BME280_humidity;BME280_pressure;Samples;Min_cycle;Max_cycle;Signal;HPM_P1;HPM_P2
2022/08/28 00:01:56;;;;;;;214.02;155.52;;;;;;;;;;4990557;28;20358;-50
2022/08/28 00:04:22;;;;;;;227.32;163.52;;;;;;;;;;4993588;28;20247;-50
2022/08/28 00:06:48;;;;;;;208.13;150.40;;;;;;;;;;4991787;28;20804;-49
2022/08/28 00:09:14;;;;;;;210.10;157.13;;;;;;;;;;4992784;28;20266;-50
2022/08/28 00:11:40;;;;;;;225.52;160.80;;;;;;;;;;4994801;28;20307;-50
2022/08/28 00:14:07;;;;;;;197.82;152.85;;;;;;;;;;4994671;28;20212;-50
2022/08/28 00:16:34;;;;;;;250.13;180.15;;;;;;;;;;4988503;28;20704;-50
2022/08/28 00:19:00;;;;;;;262.00;183.77;;;;;;;;;;4986641;28;20545;-50
2022/08/28 00:21:26;;;;;;;213.25;160.98;;;;;;;;;;4987989;28;20244;-50
2022/08/28 00:23:53;;;;;;;225.68;164.25;;;;;;;;;;4993890;28;20212;-50
2022/08/28 00:29:05;;;;;;;233.38;166.38;;;;;;;;;;4992538;28;20259;-50
2022/08/28 00:31:31;;;;;;;213.73;160.05;;;;;;;;;;4996320;28;20231;-50
2022/08/28 00:33:57;;;;;;;235.68;167.43;;;;;;;;;;4994358;28;20389;-50
2022/08/28 00:36:23;;;;;;;253.60;172.40;;;;;;;;;;4984831;28;20612;-50
2022/08/28 00:38:49;;;;;;;225.77;162.10;;;;;;;;;;4994295;28;20217;-50
2022/08/28 00:41:15;;;;;;;216.82;159.02;;;;;;;;;;4989625;28;20572;-49
2022/08/28 00:43:43;;;;;;;254.90;173.02;;;;;;;;;;4988538;28;20212;-50
2022/08/28 00:46:14;;;;;;;181.27;141.88;;;;;;;;;;4988142;28;20243;-50
2022/08/28 00:48:40;;;;;;;209.45;154.90;;;;;;;;;;4991651;28;20192;-50
2022/08/28 00:53:53;;;;;;;224.82;160.20;;;;;;;;;;4990490;28;20354;-50
2022/08/28 00:56:19;;;;;;;231.52;167.05;;;;;;;;;;4988953;28;20216;-50
2022/08/28 00:58:46;;;;;;;253.48;174.13;;;;;;;;;;4990901;28;20683;-50
2022/08/28 01:01:13;;;;;;;219.00;167.10;;;;;;;;;;4992510;28;20299;-50
2022/08/28 01:03:39;;;;;;;286.02;197.57;;;;;;;;;;4978396;28;20815;-50
2022/08/28 01:06:06;;;;;;;219.30;166.25;;;;;;;;;;4992775;28;20624;-50
2022/08/28 01:08:32;;;;;;;276.15;192.23;;;;;;;;;;4989287;28;20224;-50
2022/08/28 01:11:00;;;;;;;254.63;175.98;;;;;;;;;;4983636;28;20274;-50
2022/08/28 01:13:27;;;;;;;216.30;159.63;;;;;;;;;;4988177;28;20668;-50
2022/08/28 01:15:54;;;;;;;256.63;174.55;;;;;;;;;;4987696;28;20220;-50
2022/08/28 01:18:20;;;;;;;227.30;164.77;;;;;;;;;;4985166;28;20213;-50
2022/08/28 01:20:51;;;;;;;225.55;163.68;;;;;;;;;;4991084;28;20476;-50
2022/08/28 01:23:35;;;;;;;269.95;182.23;;;;;;;;;;4989092;28;20224;-50
2022/08/28 01:26:01;;;;;;;247.23;174.77;;;;;;;;;;4989604;28;20458;-50
2022/08/28 01:28:27;;;;;;;242.63;170.57;;;;;;;;;;4988551;28;20216;-50
2022/08/28 01:30:53;;;;;;;296.20;192.32;;;;;;;;;;4984042;28;20691;-50
2022/08/28 01:33:20;;;;;;;303.52;198.48;;;;;;;;;;4984220;28;20215;-49
2022/08/28 01:35:47;;;;;;;244.40;168.82;;;;;;;;;;4988389;28;20568;-50
2022/08/28 01:38:13;;;;;;;251.48;176.70;;;;;;;;;;4987360;28;20639;-50
2022/08/28 01:40:41;;;;;;;256.58;169.07;;;;;;;;;;4984022;28;21031;-50
2022/08/28 01:43:12;;;;;;;242.80;171.68;;;;;;;;;;4988528;28;20443;-50
2022/08/28 01:45:40;;;;;;;283.33;193.18;;;;;;;;;;4991645;28;20177;-50
2022/08/28 01:48:06;;;;;;;255.13;184.82;;;;;;;;;;4990327;28;20200;-50
2022/08/28 01:50:33;;;;;;;259.33;175.07;;;;;;;;;;4992358;28;20261;-50
2022/08/28 01:52:59;;;;;;;209.00;156.13;;;;;;;;;;4992235;28;20213;-50
2022/08/28 01:55:25;;;;;;;262.33;177.48;;;;;;;;;;4992650;28;20572;-50
2022/08/28 01:57:52;;;;;;;272.05;181.95;;;;;;;;;;4992125;28;20225;-49
2022/08/28 02:00:19;;;;;;;259.83;181.57;;;;;;;;;;4993195;28;20701;-50
2022/08/28 02:02:47;;;;;;;250.98;173.57;;;;;;;;;;4985949;28;20274;-50
2022/08/28 02:05:13;;;;;;;216.27;163.02;;;;;;;;;;4981425;28;20256;-50
2022/08/28 02:07:39;;;;;;;229.60;164.27;;;;;;;;;;4992815;28;21129;-50
2022/08/28 02:10:06;;;;;;;214.43;159.80;;;;;;;;;;4993874;28;20209;-50
2022/08/28 02:12:32;;;;;;;226.20;166.18;;;;;;;;;;4993746;28;20197;-50
2022/08/28 02:14:58;;;;;;;220.32;162.50;;;;;;;;;;4990407;28;20199;-50
2022/08/28 02:17:24;;;;;;;251.93;171.10;;;;;;;;;;4988625;28;20224;-50
2022/08/28 02:19:50;;;;;;;206.25;152.02;;;;;;;;;;4984503;28;20227;-50
2022/08/28 02:22:17;;;;;;;225.05;163.45;;;;;;;;;;4994307;28;20216;-50
2022/08/28 02:24:43;;;;;;;230.68;172.15;;;;;;;;;;4988011;28;20205;-50
2022/08/28 02:27:08;;;;;;;197.50;157.40;;;;;;;;;;4989926;28;20494;-50
2022/08/28 02:29:34;;;;;;;215.02;155.50;;;;;;;;;;4988827;28;20669;-50
2022/08/28 02:32:00;;;;;;;229.80;164.25;;;;;;;;;;4989710;28;20394;-50
2022/08/28 02:34:26;;;;;;;249.73;171.80;;;;;;;;;;4987179;28;20233;-50
2022/08/28 02:36:52;;;;;;;229.82;159.10;;;;;;;;;;4990873;28;20312;-50
2022/08/28 02:39:18;;;;;;;192.43;146.48;;;;;;;;;;4993501;28;20243;-50
2022/08/28 02:41:44;;;;;;;245.80;167.32;;;;;;;;;;4986269;28;20216;-50
2022/08/28 02:44:10;;;;;;;258.23;174.15;;;;;;;;;;4984171;28;20235;-50
2022/08/28 02:46:36;;;;;;;214.40;155.52;;;;;;;;;;4987812;28;20217;-50
2022/08/28 02:49:02;;;;;;;203.23;155.43;;;;;;;;;;4987845;28;20208;-52
2022/08/28 02:51:30;;;;;;;222.05;159.77;;;;;;;;;;4988044;28;20584;-52
2022/08/28 02:53:56;;;;;;;224.15;164.38;;;;;;;;;;4992183;28;21073;-52
2022/08/28 02:56:22;;;;;;;226.75;162.63;;;;;;;;;;4995471;28;20393;-52
2022/08/28 02:58:48;;;;;;;189.18;147.02;;;;;;;;;;4990937;28;20224;-52
2022/08/28 03:01:14;;;;;;;216.45;151.95;;;;;;;;;;4991262;28;20558;-52
2022/08/28 03:03:40;;;;;;;260.60;181.90;;;;;;;;;;4991914;28;20220;-52
2022/08/28 03:06:06;;;;;;;211.27;152.60;;;;;;;;;;4994010;28;20216;-52
2022/08/28 03:08:32;;;;;;;258.70;173.55;;;;;;;;;;4987281;28;20407;-52
2022/08/28 03:10:59;;;;;;;257.85;173.45;;;;;;;;;;4985934;28;20414;-52
2022/08/28 03:13:25;;;;;;;227.50;161.68;;;;;;;;;;4989203;28;20236;-51
2022/08/28 03:15:51;;;;;;;264.05;178.13;;;;;;;;;;4990936;28;23016;-52
2022/08/28 03:18:17;;;;;;;222.02;162.82;;;;;;;;;;4990047;28;20365;-52
2022/08/28 03:20:44;;;;;;;268.10;174.68;;;;;;;;;;4989378;28;20212;-50
2022/08/28 03:23:26;;;;;;;249.30;173.25;;;;;;;;;;4991724;28;20224;-50
2022/08/28 03:25:53;;;;;;;246.38;166.35;;;;;;;;;;4989647;28;20609;-50
2022/08/28 03:28:19;;;;;;;274.50;180.95;;;;;;;;;;4990211;28;20735;-50
2022/08/28 03:30:46;;;;;;;220.48;161.23;;;;;;;;;;4989198;28;20224;-50
2022/08/28 03:33:12;;;;;;;218.10;154.65;;;;;;;;;;4991152;28;20197;-50
2022/08/28 03:35:38;;;;;;;222.82;156.98;;;;;;;;;;4992169;28;20210;-50
2022/08/28 03:38:04;;;;;;;244.15;167.85;;;;;;;;;;4989844;28;20301;-50
2022/08/28 03:40:31;;;;;;;214.95;157.55;;;;;;;;;;4995281;28;20538;-50
2022/08/28 03:42:57;;;;;;;202.93;150.88;;;;;;;;;;4994170;28;20209;-50
2022/08/28 03:45:23;;;;;;;234.90;167.10;;;;;;;;;;4991532;28;20304;-50
2022/08/28 03:47:49;;;;;;;227.60;161.30;;;;;;;;;;4987258;28;20219;-50
2022/08/28 03:50:16;;;;;;;215.73;154.25;;;;;;;;;;4992607;28;20228;-50
2022/08/28 03:52:42;;;;;;;236.48;163.13;;;;;;;;;;4987232;28;20318;-50
2022/08/28 03:55:10;;;;;;;197.52;146.95;;;;;;;;;;4995765;28;20220;-50
2022/08/28 03:57:36;;;;;;;261.63;173.32;;;;;;;;;;4991352;28;20228;-50
2022/08/28 04:00:04;;;;;;;171.95;132.07;;;;;;;;;;5003779;23;20661;-55
2022/08/28 04:02:30;;;;;;;180.05;132.60;;;;;;;;;;4985116;28;20577;-55
2022/08/28 04:04:56;;;;;;;152.15;123.72;;;;;;;;;;4983408;28;20222;-55
2022/08/28 04:07:22;;;;;;;153.57;125.40;;;;;;;;;;4986400;28;20224;-55
2022/08/28 04:09:47;;;;;;;157.93;122.95;;;;;;;;;;4987854;28;20633;-55
2022/08/28 04:12:14;;;;;;;154.07;124.38;;;;;;;;;;4986118;28;20589;-55
2022/08/28 04:14:40;;;;;;;159.23;125.65;;;;;;;;;;4983340;28;20259;-55
2022/08/28 04:17:06;;;;;;;139.93;124.03;;;;;;;;;;4986777;28;20311;-55
2022/08/28 04:19:32;;;;;;;152.75;123.03;;;;;;;;;;4983673;28;20205;-55
2022/08/28 04:21:58;;;;;;;162.07;127.80;;;;;;;;;;4983630;28;20241;-55
2022/08/28 04:24:24;;;;;;;159.38;127.85;;;;;;;;;;4981826;28;20209;-55
2022/08/28 04:26:50;;;;;;;131.32;117.03;;;;;;;;;;4986794;28;20749;-55
2022/08/28 04:29:16;;;;;;;126.18;111.53;;;;;;;;;;4988001;28;20532;-55
2022/08/28 04:31:42;;;;;;;160.57;126.97;;;;;;;;;;4987639;28;20213;-55
2022/08/28 04:34:09;;;;;;;150.60;125.22;;;;;;;;;;4988497;28;20708;-55
2022/08/28 04:36:35;;;;;;;160.85;127.95;;;;;;;;;;4988130;28;20192;-55
2022/08/28 04:39:04;;;;;;;139.30;119.60;;;;;;;;;;4989268;28;20213;-55
2022/08/28 04:41:30;;;;;;;143.68;119.40;;;;;;;;;;4986805;28;20721;-55
2022/08/28 04:43:56;;;;;;;143.80;120.70;;;;;;;;;;4985908;28;20298;-55
2022/08/28 04:46:22;;;;;;;152.75;125.50;;;;;;;;;;4979222;28;20217;-55
2022/08/28 04:48:48;;;;;;;165.70;128.57;;;;;;;;;;4988276;28;20221;-55
2022/08/28 04:51:14;;;;;;;157.43;130.57;;;;;;;;;;4989700;28;20192;-55
2022/08/28 04:53:41;;;;;;;149.55;126.00;;;;;;;;;;4986100;28;20213;-55
2022/08/28 04:56:09;;;;;;;139.82;122.15;;;;;;;;;;4987655;28;20213;-55
2022/08/28 04:58:35;;;;;;;148.63;124.35;;;;;;;;;;4988414;28;20608;-55
2022/08/28 05:01:05;;;;;;;171.65;132.20;;;;;;;;;;4986262;28;20308;-55
2022/08/28 05:03:31;;;;;;;140.85;122.43;;;;;;;;;;4986369;28;20293;-55
2022/08/28 05:05:57;;;;;;;137.50;122.18;;;;;;;;;;4989047;28;20205;-55
2022/08/28 05:08:26;;;;;;;138.43;120.95;;;;;;;;;;4988714;28;20720;-55
2022/08/28 05:10:53;;;;;;;164.85;130.48;;;;;;;;;;4980967;28;20217;-55
2022/08/28 05:13:20;;;;;;;158.55;126.07;;;;;;;;;;4984364;28;20717;-55
2022/08/28 05:15:48;;;;;;;143.75;121.30;;;;;;;;;;4986494;28;20241;-55
2022/08/28 05:18:15;;;;;;;158.07;125.63;;;;;;;;;;4984179;28;20263;-55
2022/08/28 05:20:43;;;;;;;142.45;125.63;;;;;;;;;;4986556;28;20237;-54
2022/08/28 05:23:09;;;;;;;157.32;127.57;;;;;;;;;;4987162;28;20201;-55
2022/08/28 05:25:39;;;;;;;142.48;121.18;;;;;;;;;;4988344;28;20299;-55
2022/08/28 05:28:06;;;;;;;142.18;120.10;;;;;;;;;;4975929;28;20221;-55
2022/08/28 05:30:32;;;;;;;162.85;128.80;;;;;;;;;;4966920;28;20662;-55
2022/08/28 05:32:58;;;;;;;154.43;126.30;;;;;;;;;;4985253;28;20213;-55
2022/08/28 05:35:25;;;;;;;143.27;122.97;;;;;;;;;;4968821;28;20213;-55
2022/08/28 05:37:54;;;;;;;141.02;119.28;;;;;;;;;;4964135;28;20582;-55
2022/08/28 05:40:21;;;;;;;139.43;119.93;;;;;;;;;;4972945;28;20213;-55
2022/08/28 05:42:47;;;;;;;201.90;141.38;;;;;;;;;;4980414;28;20685;-55
2022/08/28 05:45:13;;;;;;;254.07;156.75;;;;;;;;;;4978503;28;20202;-55
2022/08/28 05:47:39;;;;;;;167.65;126.55;;;;;;;;;;4951188;28;20270;-55
2022/08/28 05:50:06;;;;;;;206.63;142.23;;;;;;;;;;4967196;28;20523;-55
2022/08/28 05:52:33;;;;;;;168.55;126.78;;;;;;;;;;4977214;28;20224;-55
2022/08/28 05:54:59;;;;;;;150.18;124.25;;;;;;;;;;4967716;28;20257;-55
2022/08/28 05:57:25;;;;;;;213.02;143.32;;;;;;;;;;4958563;28;20234;-55
2022/08/28 05:59:52;;;;;;;232.05;150.73;;;;;;;;;;4969882;28;20922;-55
2022/08/28 06:02:18;;;;;;;221.48;152.15;;;;;;;;;;4953299;28;20237;-55
2022/08/28 06:04:45;;;;;;;222.25;147.35;;;;;;;;;;4955354;28;20304;-55
2022/08/28 06:07:13;;;;;;;192.27;135.18;;;;;;;;;;4970598;28;20216;-55
2022/08/28 06:09:39;;;;;;;172.40;128.45;;;;;;;;;;4999914;28;20184;-54
2022/08/28 06:12:05;;;;;;;163.80;125.50;;;;;;;;;;5004379;28;20181;-55
2022/08/28 06:14:31;;;;;;;139.35;118.28;;;;;;;;;;5000332;28;20221;-55
2022/08/28 06:16:58;;;;;;;186.90;131.23;;;;;;;;;;4991263;28;20231;-55
2022/08/28 06:19:25;;;;;;;126.40;112.25;;;;;;;;;;4998050;28;20209;-55
2022/08/28 06:21:54;;;;;;;151.02;116.38;;;;;;;;;;4999204;28;20876;-55
2022/08/28 06:24:19;;;;;;;133.10;117.93;;;;;;;;;;5001080;28;20220;-55
2022/08/28 06:26:45;;;;;;;207.60;140.57;;;;;;;;;;4996385;28;20240;-55
2022/08/28 06:29:14;;;;;;;228.90;146.55;;;;;;;;;;4995061;28;20220;-55
2022/08/28 06:31:40;;;;;;;282.60;165.25;;;;;;;;;;4966947;28;20217;-55
2022/08/28 06:34:07;;;;;;;260.00;158.52;;;;;;;;;;4983245;28;20240;-54
2022/08/28 06:36:34;;;;;;;146.27;119.03;;;;;;;;;;4993735;28;20333;-55
2022/08/28 06:39:01;;;;;;;222.63;138.73;;;;;;;;;;4993206;28;20213;-54
2022/08/28 06:41:27;;;;;;;179.55;127.60;;;;;;;;;;4994488;28;20251;-54
2022/08/28 06:43:54;;;;;;;210.13;138.43;;;;;;;;;;4986394;28;20337;-55
2022/08/28 06:46:20;;;;;;;216.27;138.48;;;;;;;;;;4989247;28;20577;-54
2022/08/28 06:48:46;;;;;;;231.63;150.85;;;;;;;;;;4990168;28;20267;-55
2022/08/28 06:51:13;;;;;;;245.38;154.70;;;;;;;;;;4990070;28;20506;-55
2022/08/28 06:53:40;;;;;;;176.98;132.07;;;;;;;;;;4992306;28;21282;-54
2022/08/28 06:56:08;;;;;;;162.57;128.85;;;;;;;;;;4991641;28;20220;-55
2022/08/28 06:58:36;;;;;;;144.73;120.90;;;;;;;;;;4994310;28;20222;-54
2022/08/28 07:01:02;;;;;;;184.98;132.15;;;;;;;;;;4999536;28;20221;-55
2022/08/28 07:03:31;;;;;;;216.52;143.15;;;;;;;;;;4992033;28;20251;-54
2022/08/28 07:05:57;;;;;;;207.60;144.80;;;;;;;;;;4988816;28;20178;-55
2022/08/28 07:08:25;;;;;;;163.88;130.63;;;;;;;;;;4993476;28;21296;-56
2022/08/28 07:10:52;;;;;;;153.30;125.75;;;;;;;;;;5009844;28;20609;-55
2022/08/28 07:13:18;;;;;;;169.77;132.95;;;;;;;;;;5006768;28;20251;-56
2022/08/28 07:15:44;;;;;;;159.75;128.32;;;;;;;;;;5009374;28;20177;-56
2022/08/28 07:18:11;;;;;;;169.43;131.80;;;;;;;;;;5001814;28;20243;-55
2022/08/28 07:20:37;;;;;;;156.93;126.10;;;;;;;;;;5006265;28;20216;-56
2022/08/28 07:23:03;;;;;;;144.13;116.28;;;;;;;;;;5001357;28;20221;-56
2022/08/28 07:25:29;;;;;;;209.38;144.50;;;;;;;;;;4999789;28;20299;-54
2022/08/28 07:27:55;;;;;;;166.07;131.55;;;;;;;;;;4995547;28;20339;-55
2022/08/28 07:30:21;;;;;;;233.15;135.13;;;;;;;;;;4988081;28;21743;-55
2022/08/28 07:32:48;;;;;;;229.38;140.38;;;;;;;;;;4996948;28;20217;-56
2022/08/28 07:35:15;;;;;;;187.20;124.95;;;;;;;;;;4995649;28;20333;-55
2022/08/28 07:37:41;;;;;;;267.25;153.23;;;;;;;;;;4992071;28;20232;-55
2022/08/28 07:40:08;;;;;;;216.40;133.73;;;;;;;;;;4990381;28;20690;-55
2022/08/28 07:45:19;;;;;;;221.52;132.48;;;;;;;;;;4996532;28;20191;-55
2022/08/28 07:47:45;;;;;;;173.35;121.55;;;;;;;;;;4995438;28;20216;-55
2022/08/28 07:50:11;;;;;;;181.80;123.20;;;;;;;;;;5000963;28;20224;-56
2022/08/28 07:52:37;;;;;;;159.63;117.07;;;;;;;;;;5006946;28;20216;-55
2022/08/28 07:55:05;;;;;;;242.70;157.40;;;;;;;;;;4993255;28;20633;-55
2022/08/28 07:57:31;;;;;;;233.20;148.05;;;;;;;;;;4994250;28;20386;-55
2022/08/28 08:00:00;;;;;;;200.55;134.90;;;;;;;;;;4998644;28;20192;-55
2022/08/28 08:02:26;;;;;;;199.43;137.32;;;;;;;;;;4994957;28;20441;-55
2022/08/28 08:04:53;;;;;;;230.13;142.77;;;;;;;;;;4995382;28;22281;-55
2022/08/28 08:07:19;;;;;;;220.43;141.45;;;;;;;;;;4987083;28;20243;-55
2022/08/28 08:09:45;;;;;;;182.30;130.20;;;;;;;;;;4989802;28;20577;-55
2022/08/28 08:12:12;;;;;;;154.23;122.35;;;;;;;;;;4998072;28;20665;-55
2022/08/28 08:14:39;;;;;;;143.30;120.00;;;;;;;;;;5004197;28;20267;-55
2022/08/28 08:17:06;;;;;;;215.00;140.32;;;;;;;;;;4997507;28;20791;-56
2022/08/28 08:19:32;;;;;;;157.48;124.13;;;;;;;;;;5003550;28;20223;-56
2022/08/28 08:21:58;;;;;;;147.57;117.38;;;;;;;;;;5002887;28;20291;-56
2022/08/28 08:24:25;;;;;;;127.05;106.40;;;;;;;;;;5001904;28;20288;-56
2022/08/28 08:26:52;;;;;;;158.70;112.68;;;;;;;;;;5001965;28;20208;-55
2022/08/28 08:29:18;;;;;;;160.23;117.43;;;;;;;;;;4997234;28;20253;-55
2022/08/28 08:31:44;;;;;;;144.60;110.15;;;;;;;;;;5001628;28;20212;-55
2022/08/28 08:34:10;;;;;;;138.02;110.38;;;;;;;;;;5002371;28;20219;-55
2022/08/28 08:36:36;;;;;;;138.45;114.65;;;;;;;;;;4993485;28;20211;-55
2022/08/28 08:39:03;;;;;;;145.82;115.57;;;;;;;;;;4999488;28;20200;-53
2022/08/28 08:41:32;;;;;;;128.30;105.85;;;;;;;;;;4999135;28;20664;-53
2022/08/28 08:44:17;;;;;;;175.63;128.23;;;;;;;;;;5001825;28;20213;-53
2022/08/28 08:46:46;;;;;;;207.35;135.68;;;;;;;;;;4997201;28;20224;-53
2022/08/28 08:49:20;;;;;;;122.70;106.70;;;;;;;;;;4990445;28;20220;-53
2022/08/28 08:51:48;;;;;;;107.70;97.55;;;;;;;;;;5010197;28;20250;-53
2022/08/28 08:54:19;;;;;;;110.68;99.47;;;;;;;;;;5009494;28;20204;-52
2022/08/28 08:56:46;;;;;;;98.68;91.60;;;;;;;;;;5010016;28;20274;-53
2022/08/28 08:59:15;;;;;;;110.57;98.63;;;;;;;;;;5009370;28;20240;-53
2022/08/28 09:01:44;;;;;;;112.50;101.88;;;;;;;;;;5010972;28;20689;-53
2022/08/28 09:04:24;;;;;;;101.65;93.35;;;;;;;;;;5011157;28;20243;-53
2022/08/28 09:06:54;;;;;;;102.32;92.07;;;;;;;;;;5010908;28;20266;-53
2022/08/28 09:09:26;;;;;;;103.03;94.00;;;;;;;;;;5011843;28;20177;-53
2022/08/28 09:11:54;;;;;;;106.97;97.07;;;;;;;;;;5011757;28;20284;-53
2022/08/28 09:14:30;;;;;;;136.65;113.80;;;;;;;;;;5006639;28;20240;-55
2022/08/28 09:16:57;;;;;;;115.20;103.50;;;;;;;;;;4992994;28;20216;-55
2022/08/28 09:19:23;;;;;;;120.15;107.35;;;;;;;;;;4993282;28;20758;-55
2022/08/28 09:21:50;;;;;;;169.90;117.57;;;;;;;;;;4992091;28;20220;-56
2022/08/28 09:24:20;;;;;;;133.38;112.47;;;;;;;;;;4988549;28;20538;-55
2022/08/28 09:26:57;;;;;;;174.45;125.10;;;;;;;;;;4991645;28;20217;-55
2022/08/28 09:29:42;;;;;;;176.20;125.78;;;;;;;;;;4993805;28;20776;-55
2022/08/28 09:32:31;;;;;;;157.15;122.38;;;;;;;;;;4991284;28;20249;-55
2022/08/28 09:35:01;;;;;;;212.70;136.52;;;;;;;;;;4989523;28;20930;-55
2022/08/28 09:37:30;;;;;;;154.95;119.20;;;;;;;;;;4994391;28;20263;-55
2022/08/28 09:40:15;;;;;;;208.88;141.38;;;;;;;;;;4987384;28;20300;-56
2022/08/28 09:45:41;;;;;;;199.00;135.85;;;;;;;;;;4990547;28;20696;-56
2022/08/28 09:48:17;;;;;;;211.45;137.57;;;;;;;;;;4987903;28;20192;-56
2022/08/28 09:50:56;;;;;;;194.23;130.38;;;;;;;;;;4989415;28;20274;-55
2022/08/28 09:53:22;;;;;;;169.18;124.65;;;;;;;;;;4985863;28;20217;-55
2022/08/28 09:55:59;;;;;;;160.73;123.60;;;;;;;;;;4988943;28;20218;-56
2022/08/28 09:58:29;;;;;;;120.85;109.03;;;;;;;;;;4998743;28;21004;-56
2022/08/28 10:01:04;;;;;;;153.10;124.90;;;;;;;;;;4996579;28;20696;-56
2022/08/28 10:03:34;;;;;;;225.55;153.82;;;;;;;;;;4985534;28;20678;-56
2022/08/28 10:06:00;;;;;;;232.48;154.27;;;;;;;;;;4987938;28;20181;-56
2022/08/28 10:08:45;;;;;;;197.85;140.05;;;;;;;;;;5007917;28;20220;-55
2022/08/28 10:11:27;;;;;;;180.57;138.65;;;;;;;;;;5003761;28;20297;-56
2022/08/28 10:14:06;;;;;;;197.85;144.00;;;;;;;;;;4993526;28;20216;-55
2022/08/28 10:16:40;;;;;;;203.77;147.05;;;;;;;;;;4994428;28;20302;-55
2022/08/28 10:19:25;;;;;;;222.60;151.68;;;;;;;;;;4988675;28;20216;-57
2022/08/28 10:22:14;;;;;;;204.25;142.55;;;;;;;;;;4992441;28;20589;-55
2022/08/28 10:24:46;;;;;;;205.05;142.00;;;;;;;;;;4997177;28;20197;-55
2022/08/28 10:27:12;;;;;;;205.43;141.93;;;;;;;;;;4994858;28;20304;-55
2022/08/28 10:29:56;;;;;;;178.50;137.20;;;;;;;;;;5004004;28;20640;-55
2022/08/28 10:32:28;;;;;;;209.50;145.77;;;;;;;;;;4996641;28;20220;-55
2022/08/28 10:35:07;;;;;;;240.80;156.75;;;;;;;;;;4994464;28;20224;-55
2022/08/28 10:37:33;;;;;;;183.65;143.18;;;;;;;;;;4993965;28;20212;-55
2022/08/28 10:40:01;;;;;;;218.57;154.07;;;;;;;;;;4990974;28;20221;-55
2022/08/28 10:42:39;;;;;;;194.75;146.35;;;;;;;;;;4992328;28;20629;-55
2022/08/28 10:45:11;;;;;;;241.23;155.90;;;;;;;;;;4978679;28;20701;-55
2022/08/28 10:47:40;;;;;;;196.32;145.38;;;;;;;;;;4994896;28;20220;-55
2022/08/28 10:50:10;;;;;;;213.25;154.40;;;;;;;;;;4998163;28;20216;-55
2022/08/28 10:52:39;;;;;;;139.75;125.90;;;;;;;;;;5005677;28;20573;-53
2022/08/28 10:55:16;;;;;;;129.90;116.43;;;;;;;;;;5014715;28;20247;-53
2022/08/28 10:57:52;;;;;;;136.32;123.03;;;;;;;;;;5013754;28;20196;-53
2022/08/28 11:00:22;;;;;;;126.75;115.60;;;;;;;;;;5013836;28;20188;-52
2022/08/28 11:02:50;;;;;;;122.35;110.50;;;;;;;;;;5013593;28;20689;-53
2022/08/28 11:05:20;;;;;;;124.35;111.88;;;;;;;;;;5013263;28;20613;-53
2022/08/28 11:08:12;;;;;;;134.57;119.45;;;;;;;;;;5013281;28;20299;-52
2022/08/28 11:10:44;;;;;;;122.32;110.10;;;;;;;;;;5010595;28;20267;-51
2022/08/28 11:13:10;;;;;;;128.48;116.25;;;;;;;;;;5013433;28;20573;-53
2022/08/28 11:15:41;;;;;;;132.82;118.68;;;;;;;;;;5013237;28;20180;-52
2022/08/28 11:18:14;;;;;;;130.57;116.90;;;;;;;;;;5012409;28;20620;-53
2022/08/28 11:20:42;;;;;;;113.47;104.25;;;;;;;;;;5013222;28;20225;-53
2022/08/28 11:23:09;;;;;;;134.97;121.80;;;;;;;;;;5013058;28;20723;-53
2022/08/28 11:25:40;;;;;;;135.00;121.23;;;;;;;;;;5013229;28;20216;-52
2022/08/28 11:28:25;;;;;;;128.85;117.47;;;;;;;;;;5013075;28;20212;-53
2022/08/28 11:30:57;;;;;;;135.20;121.73;;;;;;;;;;5013025;28;20209;-53
2022/08/28 11:33:42;;;;;;;134.15;119.72;;;;;;;;;;5013340;28;20236;-53
2022/08/28 11:36:29;;;;;;;124.72;112.25;;;;;;;;;;5013126;28;20274;-53
2022/08/28 11:38:55;;;;;;;122.68;110.88;;;;;;;;;;4982743;28;20243;-53
2022/08/28 11:41:25;;;;;;;123.25;110.45;;;;;;;;;;5012855;28;20383;-53
2022/08/28 11:44:03;;;;;;;139.18;125.35;;;;;;;;;;5012818;28;20227;-53
2022/08/28 11:46:33;;;;;;;129.80;117.32;;;;;;;;;;5012868;28;20219;-53
2022/08/28 11:49:18;;;;;;;139.77;124.05;;;;;;;;;;5012446;28;20225;-54
2022/08/28 11:51:55;;;;;;;125.53;112.95;;;;;;;;;;5012849;28;20223;-53
2022/08/28 11:54:31;;;;;;;154.80;132.80;;;;;;;;;;5005524;28;20371;-52
2022/08/28 11:57:10;;;;;;;198.85;151.65;;;;;;;;;;5006685;28;20219;-52
2022/08/28 11:59:36;;;;;;;158.48;140.98;;;;;;;;;;4998057;28;20212;-52
2022/08/28 12:02:24;;;;;;;207.10;155.95;;;;;;;;;;4992941;28;20215;-52
2022/08/28 12:04:51;;;;;;;124.57;114.10;;;;;;;;;;4994728;28;20217;-53
2022/08/28 12:07:20;;;;;;;147.43;132.60;;;;;;;;;;5012456;28;20239;-53
2022/08/28 12:09:47;;;;;;;153.15;137.20;;;;;;;;;;5012189;28;20208;-54
2022/08/28 12:12:22;;;;;;;151.68;136.50;;;;;;;;;;5012765;28;20693;-53
2022/08/28 12:14:54;;;;;;;143.85;129.80;;;;;;;;;;5011675;28;20240;-53
2022/08/28 12:17:23;;;;;;;146.48;131.93;;;;;;;;;;5011637;28;20217;-53
2022/08/28 12:19:55;;;;;;;149.98;134.75;;;;;;;;;;5012164;28;20223;-54
2022/08/28 12:22:22;;;;;;;152.25;136.38;;;;;;;;;;5012129;28;20263;-54
2022/08/28 12:25:00;;;;;;;141.23;126.80;;;;;;;;;;5012177;28;20221;-54
2022/08/28 12:27:28;;;;;;;148.65;132.43;;;;;;;;;;5012275;28;20173;-54
2022/08/28 12:29:55;;;;;;;145.38;130.57;;;;;;;;;;5011726;28;20216;-55
2022/08/28 12:32:29;;;;;;;150.23;135.27;;;;;;;;;;5012022;28;20689;-55
2022/08/28 12:34:57;;;;;;;145.23;130.27;;;;;;;;;;5011633;28;20225;-54
2022/08/28 12:37:23;;;;;;;141.55;128.23;;;;;;;;;;5011889;28;20292;-55
2022/08/28 12:39:50;;;;;;;152.95;137.85;;;;;;;;;;5011781;28;20305;-54
2022/08/28 12:42:21;;;;;;;155.45;139.25;;;;;;;;;;5012482;28;20223;-55
2022/08/28 12:44:47;;;;;;;165.57;147.88;;;;;;;;;;5011281;28;20311;-55
2022/08/28 12:47:15;;;;;;;160.80;144.68;;;;;;;;;;5011619;28;20232;-55
2022/08/28 12:49:41;;;;;;;145.48;130.82;;;;;;;;;;5011296;28;20613;-55
2022/08/28 12:52:12;;;;;;;140.50;127.13;;;;;;;;;;5011982;28;20357;-55
2022/08/28 12:54:38;;;;;;;159.63;143.50;;;;;;;;;;5011964;28;20692;-55
2022/08/28 12:57:06;;;;;;;167.35;149.13;;;;;;;;;;5011719;28;20219;-56
2022/08/28 12:59:35;;;;;;;155.38;139.85;;;;;;;;;;5011060;28;20236;-55
2022/08/28 13:02:06;;;;;;;158.35;142.35;;;;;;;;;;5011337;28;20223;-56
2022/08/28 13:04:32;;;;;;;158.20;142.30;;;;;;;;;;5011122;28;20217;-55
2022/08/28 13:07:05;;;;;;;155.07;139.57;;;;;;;;;;5011412;28;20212;-56
2022/08/28 13:09:31;;;;;;;161.95;144.45;;;;;;;;;;5011164;28;20168;-55
2022/08/28 13:11:57;;;;;;;161.18;144.45;;;;;;;;;;5010892;28;20209;-56
2022/08/28 13:14:44;;;;;;;151.45;137.50;;;;;;;;;;5010402;28;20228;-55
2022/08/28 13:17:11;;;;;;;152.23;138.02;;;;;;;;;;5011212;28;20208;-57
2022/08/28 13:19:37;;;;;;;158.38;141.55;;;;;;;;;;5010457;28;20581;-57
2022/08/28 13:22:07;;;;;;;151.13;135.45;;;;;;;;;;5011090;28;20220;-56
2022/08/28 13:24:44;;;;;;;182.63;153.63;;;;;;;;;;5008505;28;20180;-55
2022/08/28 13:27:13;;;;;;;165.80;146.32;;;;;;;;;;5000318;28;20261;-57
2022/08/28 13:29:54;;;;;;;155.35;140.30;;;;;;;;;;4996444;28;20300;-56
2022/08/28 13:32:20;;;;;;;136.07;123.35;;;;;;;;;;5011072;28;20212;-56
2022/08/28 13:35:04;;;;;;;145.93;131.70;;;;;;;;;;5010642;28;20562;-55
2022/08/28 13:37:44;;;;;;;138.38;125.85;;;;;;;;;;5010540;28;20225;-56
2022/08/28 13:40:12;;;;;;;138.60;124.97;;;;;;;;;;5010367;28;20204;-55
2022/08/28 13:42:38;;;;;;;124.43;113.78;;;;;;;;;;5010955;28;20169;-56
2022/08/28 13:45:05;;;;;;;147.02;131.15;;;;;;;;;;5010271;28;20719;-55
2022/08/28 13:47:31;;;;;;;164.77;148.07;;;;;;;;;;5024263;28;20216;-55
2022/08/28 13:49:57;;;;;;;137.50;124.15;;;;;;;;;;5003596;28;20259;-55
2022/08/28 13:52:23;;;;;;;166.05;149.15;;;;;;;;;;5004040;28;20221;-55
2022/08/28 13:54:49;;;;;;;163.32;147.35;;;;;;;;;;5010694;28;20220;-55
2022/08/28 13:57:16;;;;;;;155.07;139.43;;;;;;;;;;5010712;28;20189;-56
2022/08/28 13:59:41;;;;;;;168.13;151.93;;;;;;;;;;5010174;28;20228;-55
2022/08/28 14:04:53;;;;;;;178.20;162.60;;;;;;;;;;5010073;28;20334;-55
2022/08/28 14:07:19;;;;;;;194.60;174.82;;;;;;;;;;5010352;28;20220;-55
2022/08/28 14:09:45;;;;;;;206.27;185.40;;;;;;;;;;5010345;28;25254;-56
2022/08/28 14:12:11;;;;;;;215.95;194.13;;;;;;;;;;5010942;28;20295;-56
2022/08/28 14:14:39;;;;;;;225.00;202.30;;;;;;;;;;5009977;28;20220;-56